Terminal Aerodrome Forecast
Issued by NWS

Home | Current Version | Previous Version | Graphics & Text | Print | Product List | Glossary On
Versions: 1 2 3 4 5 6 7 8 9 10 11 12 13 14 15 16 17 18 19 20 21 22 23 24 25 26 27 28 29 30 31 32 33 34 35 36 37 38
000
FTUS43 KGRB 271953 AAA
TAFRHI
TAF AMD
KRHI 271953Z 2720/2818 13005KT P6SM SCT025 OVC045
      TEMPO 2720/2724 6SM -SHRA BKN025
     FM280400 VRB03KT P6SM BKN025
     FM280500 VRB03KT P6SM BKN017
     FM280600 23003KT 4SM BR BKN008
     FM280900 VRB03KT 1SM BR OVC006
      TEMPO 2809/2813 1/2SM FG VV001
     FM281500 29004KT 5SM BR BKN025=

USA.gov is the U.S. government's official web portal to all federal, state and local government web resources and services.